sensor_id;sensor_type;location;lat;lon;timestamp;P1;durP1;ratioP1;P2;durP2;ratioP2
44810;SDS011;30526;52.184;4.476;2022-07-30T00:00:02;6.53;;;2.60;;
44810;SDS011;30526;52.184;4.476;2022-07-30T00:02:29;7.88;;;2.50;;
44810;SDS011;30526;52.184;4.476;2022-07-30T00:04:55;6.50;;;2.38;;
44810;SDS011;30526;52.184;4.476;2022-07-30T00:07:21;8.63;;;2.97;;
44810;SDS011;30526;52.184;4.476;2022-07-30T00:09:47;5.68;;;2.80;;
44810;SDS011;30526;52.184;4.476;2022-07-30T00:12:13;8.38;;;3.20;;
44810;SDS011;30526;52.184;4.476;2022-07-30T00:14:39;6.38;;;3.10;;
44810;SDS011;30526;52.184;4.476;2022-07-30T00:17:05;6.03;;;2.78;;
44810;SDS011;30526;52.184;4.476;2022-07-30T00:19:31;9.05;;;2.90;;
44810;SDS011;30526;52.184;4.476;2022-07-30T00:21:57;8.55;;;2.83;;
44810;SDS011;30526;52.184;4.476;2022-07-30T00:24:23;8.85;;;3.30;;
44810;SDS011;30526;52.184;4.476;2022-07-30T00:26:49;4.10;;;2.97;;
44810;SDS011;30526;52.184;4.476;2022-07-30T00:29:15;8.20;;;2.75;;
44810;SDS011;30526;52.184;4.476;2022-07-30T00:31:41;5.65;;;2.67;;
44810;SDS011;30526;52.184;4.476;2022-07-30T00:34:07;8.63;;;2.70;;
44810;SDS011;30526;52.184;4.476;2022-07-30T00:36:33;4.95;;;2.90;;
44810;SDS011;30526;52.184;4.476;2022-07-30T00:39:00;8.25;;;3.08;;
44810;SDS011;30526;52.184;4.476;2022-07-30T00:41:26;11.43;;;3.05;;
44810;SDS011;30526;52.184;4.476;2022-07-30T00:43:52;8.50;;;3.15;;
44810;SDS011;30526;52.184;4.476;2022-07-30T00:46:19;10.85;;;3.28;;
44810;SDS011;30526;52.184;4.476;2022-07-30T00:48:45;6.68;;;3.10;;
44810;SDS011;30526;52.184;4.476;2022-07-30T00:51:11;6.47;;;3.20;;
44810;SDS011;30526;52.184;4.476;2022-07-30T00:53:37;7.00;;;3.05;;
44810;SDS011;30526;52.184;4.476;2022-07-30T00:56:03;4.55;;;2.28;;
44810;SDS011;30526;52.184;4.476;2022-07-30T00:58:29;6.65;;;3.00;;
44810;SDS011;30526;52.184;4.476;2022-07-30T01:00:55;9.45;;;2.88;;
44810;SDS011;30526;52.184;4.476;2022-07-30T01:03:21;4.55;;;2.63;;
44810;SDS011;30526;52.184;4.476;2022-07-30T01:05:47;10.35;;;3.00;;
44810;SDS011;30526;52.184;4.476;2022-07-30T01:08:14;10.88;;;3.30;;
44810;SDS011;30526;52.184;4.476;2022-07-30T01:10:40;4.72;;;2.80;;
44810;SDS011;30526;52.184;4.476;2022-07-30T01:13:06;5.35;;;2.45;;
44810;SDS011;30526;52.184;4.476;2022-07-30T01:15:32;4.68;;;2.80;;
44810;SDS011;30526;52.184;4.476;2022-07-30T01:17:59;7.13;;;2.40;;
44810;SDS011;30526;52.184;4.476;2022-07-30T01:23:17;5.85;;;2.70;;
44810;SDS011;30526;52.184;4.476;2022-07-30T01:25:47;6.85;;;2.78;;
44810;SDS011;30526;52.184;4.476;2022-07-30T01:28:16;8.80;;;2.85;;
44810;SDS011;30526;52.184;4.476;2022-07-30T01:30:44;10.35;;;2.97;;
44810;SDS011;30526;52.184;4.476;2022-07-30T01:33:11;8.13;;;2.88;;
44810;SDS011;30526;52.184;4.476;2022-07-30T01:35:39;9.02;;;3.53;;
44810;SDS011;30526;52.184;4.476;2022-07-30T01:38:06;4.70;;;2.78;;
44810;SDS011;30526;52.184;4.476;2022-07-30T01:40:35;7.55;;;2.60;;
44810;SDS011;30526;52.184;4.476;2022-07-30T01:43:02;7.53;;;2.72;;
44810;SDS011;30526;52.184;4.476;2022-07-30T01:45:29;4.93;;;2.90;;
44810;SDS011;30526;52.184;4.476;2022-07-30T01:47:56;6.45;;;2.97;;
44810;SDS011;30526;52.184;4.476;2022-07-30T01:50:23;9.45;;;2.95;;
44810;SDS011;30526;52.184;4.476;2022-07-30T01:52:50;6.60;;;3.08;;
44810;SDS011;30526;52.184;4.476;2022-07-30T01:55:18;10.07;;;3.30;;
44810;SDS011;30526;52.184;4.476;2022-07-30T01:57:46;5.53;;;2.75;;
44810;SDS011;30526;52.184;4.476;2022-07-30T02:00:12;7.97;;;2.95;;
44810;SDS011;30526;52.184;4.476;2022-07-30T02:02:38;5.40;;;2.75;;
44810;SDS011;30526;52.184;4.476;2022-07-30T02:05:07;4.55;;;2.85;;
44810;SDS011;30526;52.184;4.476;2022-07-30T02:07:42;9.63;;;3.33;;
44810;SDS011;30526;52.184;4.476;2022-07-30T02:12:36;11.05;;;2.85;;
44810;SDS011;30526;52.184;4.476;2022-07-30T02:17:41;6.65;;;2.88;;
44810;SDS011;30526;52.184;4.476;2022-07-30T02:20:09;7.22;;;3.10;;
44810;SDS011;30526;52.184;4.476;2022-07-30T02:22:37;6.65;;;2.72;;
44810;SDS011;30526;52.184;4.476;2022-07-30T02:25:04;7.50;;;3.13;;
44810;SDS011;30526;52.184;4.476;2022-07-30T02:27:31;9.13;;;3.08;;
44810;SDS011;30526;52.184;4.476;2022-07-30T02:32:25;7.25;;;2.85;;
44810;SDS011;30526;52.184;4.476;2022-07-30T02:34:53;6.38;;;3.05;;
44810;SDS011;30526;52.184;4.476;2022-07-30T02:37:20;8.45;;;3.13;;
44810;SDS011;30526;52.184;4.476;2022-07-30T02:39:47;7.47;;;2.90;;
44810;SDS011;30526;52.184;4.476;2022-07-30T02:42:14;5.80;;;2.35;;
44810;SDS011;30526;52.184;4.476;2022-07-30T02:44:41;6.37;;;2.30;;
44810;SDS011;30526;52.184;4.476;2022-07-30T02:47:08;5.43;;;2.92;;
44810;SDS011;30526;52.184;4.476;2022-07-30T02:49:36;5.88;;;2.30;;
44810;SDS011;30526;52.184;4.476;2022-07-30T02:54:29;8.65;;;2.35;;
44810;SDS011;30526;52.184;4.476;2022-07-30T02:56:55;9.00;;;3.05;;
44810;SDS011;30526;52.184;4.476;2022-07-30T02:59:22;5.28;;;3.20;;
44810;SDS011;30526;52.184;4.476;2022-07-30T03:01:48;6.27;;;2.87;;
44810;SDS011;30526;52.184;4.476;2022-07-30T03:04:15;8.18;;;2.85;;
44810;SDS011;30526;52.184;4.476;2022-07-30T03:06:43;9.30;;;2.75;;
44810;SDS011;30526;52.184;4.476;2022-07-30T03:09:10;8.20;;;3.07;;
44810;SDS011;30526;52.184;4.476;2022-07-30T03:11:37;3.70;;;2.20;;
44810;SDS011;30526;52.184;4.476;2022-07-30T03:14:03;9.57;;;3.35;;
44810;SDS011;30526;52.184;4.476;2022-07-30T03:16:31;8.38;;;3.10;;
44810;SDS011;30526;52.184;4.476;2022-07-30T03:18:59;5.78;;;1.98;;
44810;SDS011;30526;52.184;4.476;2022-07-30T03:23:52;7.82;;;2.50;;
44810;SDS011;30526;52.184;4.476;2022-07-30T03:26:19;7.22;;;1.65;;
44810;SDS011;30526;52.184;4.476;2022-07-30T03:28:47;5.97;;;2.78;;
44810;SDS011;30526;52.184;4.476;2022-07-30T03:31:14;4.40;;;2.13;;
44810;SDS011;30526;52.184;4.476;2022-07-30T03:33:40;4.40;;;2.50;;
44810;SDS011;30526;52.184;4.476;2022-07-30T03:36:08;3.13;;;1.98;;
44810;SDS011;30526;52.184;4.476;2022-07-30T03:38:37;4.60;;;2.33;;
44810;SDS011;30526;52.184;4.476;2022-07-30T03:41:04;3.60;;;1.60;;
44810;SDS011;30526;52.184;4.476;2022-07-30T03:43:31;5.75;;;2.00;;
44810;SDS011;30526;52.184;4.476;2022-07-30T03:45:57;4.03;;;2.20;;
44810;SDS011;30526;52.184;4.476;2022-07-30T03:48:23;3.60;;;1.70;;
44810;SDS011;30526;52.184;4.476;2022-07-30T03:50:50;4.47;;;2.30;;
44810;SDS011;30526;52.184;4.476;2022-07-30T03:53:17;3.30;;;1.65;;
44810;SDS011;30526;52.184;4.476;2022-07-30T03:55:43;3.90;;;2.40;;
44810;SDS011;30526;52.184;4.476;2022-07-30T03:58:10;2.53;;;2.00;;
44810;SDS011;30526;52.184;4.476;2022-07-30T04:00:37;7.93;;;2.10;;
44810;SDS011;30526;52.184;4.476;2022-07-30T04:05:29;4.68;;;2.10;;
44810;SDS011;30526;52.184;4.476;2022-07-30T04:07:55;4.55;;;2.00;;
44810;SDS011;30526;52.184;4.476;2022-07-30T04:10:21;8.15;;;2.15;;
44810;SDS011;30526;52.184;4.476;2022-07-30T04:12:47;5.88;;;2.03;;
44810;SDS011;30526;52.184;4.476;2022-07-30T04:15:13;7.20;;;2.00;;
44810;SDS011;30526;52.184;4.476;2022-07-30T04:20:05;7.80;;;2.10;;
44810;SDS011;30526;52.184;4.476;2022-07-30T04:22:33;5.28;;;2.65;;
44810;SDS011;30526;52.184;4.476;2022-07-30T04:25:01;3.05;;;1.70;;
44810;SDS011;30526;52.184;4.476;2022-07-30T04:27:27;5.30;;;1.77;;
44810;SDS011;30526;52.184;4.476;2022-07-30T04:29:54;5.22;;;2.03;;
44810;SDS011;30526;52.184;4.476;2022-07-30T04:32:20;7.20;;;1.70;;
44810;SDS011;30526;52.184;4.476;2022-07-30T04:34:50;8.40;;;2.15;;
44810;SDS011;30526;52.184;4.476;2022-07-30T04:37:17;4.93;;;2.00;;
44810;SDS011;30526;52.184;4.476;2022-07-30T04:39:43;3.38;;;1.52;;
44810;SDS011;30526;52.184;4.476;2022-07-30T04:42:09;5.50;;;1.40;;
44810;SDS011;30526;52.184;4.476;2022-07-30T04:44:36;4.32;;;1.63;;
44810;SDS011;30526;52.184;4.476;2022-07-30T04:47:02;4.45;;;1.48;;
44810;SDS011;30526;52.184;4.476;2022-07-30T04:49:28;5.10;;;1.83;;
44810;SDS011;30526;52.184;4.476;2022-07-30T04:51:54;7.03;;;1.10;;
44810;SDS011;30526;52.184;4.476;2022-07-30T04:54:21;2.63;;;1.30;;
44810;SDS011;30526;52.184;4.476;2022-07-30T04:56:48;2.15;;;1.30;;
44810;SDS011;30526;52.184;4.476;2022-07-30T04:59:16;4.43;;;1.43;;
44810;SDS011;30526;52.184;4.476;2022-07-30T05:04:08;5.50;;;1.27;;
44810;SDS011;30526;52.184;4.476;2022-07-30T05:06:35;4.15;;;1.25;;
44810;SDS011;30526;52.184;4.476;2022-07-30T05:09:02;5.60;;;1.70;;
44810;SDS011;30526;52.184;4.476;2022-07-30T05:11:28;2.47;;;1.30;;
44810;SDS011;30526;52.184;4.476;2022-07-30T05:13:54;7.85;;;1.42;;
44810;SDS011;30526;52.184;4.476;2022-07-30T05:16:20;1.95;;;1.30;;
44810;SDS011;30526;52.184;4.476;2022-07-30T05:18:46;2.95;;;1.38;;
44810;SDS011;30526;52.184;4.476;2022-07-30T05:21:12;4.07;;;1.30;;
44810;SDS011;30526;52.184;4.476;2022-07-30T05:23:38;5.18;;;1.70;;
44810;SDS011;30526;52.184;4.476;2022-07-30T05:26:04;3.38;;;1.20;;
44810;SDS011;30526;52.184;4.476;2022-07-30T05:28:30;2.47;;;1.20;;
44810;SDS011;30526;52.184;4.476;2022-07-30T05:30:56;2.83;;;1.33;;
44810;SDS011;30526;52.184;4.476;2022-07-30T05:33:22;6.15;;;1.67;;
44810;SDS011;30526;52.184;4.476;2022-07-30T05:35:48;2.63;;;1.42;;
44810;SDS011;30526;52.184;4.476;2022-07-30T05:38:15;4.37;;;1.30;;
44810;SDS011;30526;52.184;4.476;2022-07-30T05:40:41;1.33;;;0.80;;
44810;SDS011;30526;52.184;4.476;2022-07-30T05:43:08;2.60;;;1.40;;
44810;SDS011;30526;52.184;4.476;2022-07-30T05:45:35;2.55;;;1.20;;
44810;SDS011;30526;52.184;4.476;2022-07-30T05:48:01;3.47;;;1.20;;
44810;SDS011;30526;52.184;4.476;2022-07-30T05:50:27;2.67;;;1.10;;
44810;SDS011;30526;52.184;4.476;2022-07-30T05:52:53;2.97;;;1.45;;
44810;SDS011;30526;52.184;4.476;2022-07-30T05:55:20;3.90;;;0.90;;
44810;SDS011;30526;52.184;4.476;2022-07-30T05:57:46;3.05;;;1.13;;
44810;SDS011;30526;52.184;4.476;2022-07-30T06:00:12;2.53;;;1.10;;
44810;SDS011;30526;52.184;4.476;2022-07-30T06:02:38;1.80;;;1.13;;
44810;SDS011;30526;52.184;4.476;2022-07-30T06:05:04;4.95;;;1.35;;
44810;SDS011;30526;52.184;4.476;2022-07-30T06:07:31;7.70;;;1.98;;
44810;SDS011;30526;52.184;4.476;2022-07-30T06:09:57;2.92;;;1.00;;
44810;SDS011;30526;52.184;4.476;2022-07-30T06:12:27;2.28;;;0.98;;
44810;SDS011;30526;52.184;4.476;2022-07-30T06:14:53;6.05;;;1.30;;
44810;SDS011;30526;52.184;4.476;2022-07-30T06:17:19;2.80;;;1.30;;
44810;SDS011;30526;52.184;4.476;2022-07-30T06:19:45;1.95;;;1.00;;
44810;SDS011;30526;52.184;4.476;2022-07-30T06:22:12;2.28;;;1.30;;
44810;SDS011;30526;52.184;4.476;2022-07-30T06:24:38;2.70;;;1.13;;
44810;SDS011;30526;52.184;4.476;2022-07-30T06:27:04;3.55;;;1.27;;
44810;SDS011;30526;52.184;4.476;2022-07-30T06:29:31;5.78;;;1.08;;
44810;SDS011;30526;52.184;4.476;2022-07-30T06:31:57;4.10;;;1.25;;
44810;SDS011;30526;52.184;4.476;2022-07-30T06:34:23;1.80;;;1.15;;
44810;SDS011;30526;52.184;4.476;2022-07-30T06:36:49;8.43;;;1.40;;
44810;SDS011;30526;52.184;4.476;2022-07-30T06:39:15;1.83;;;1.10;;
44810;SDS011;30526;52.184;4.476;2022-07-30T06:41:41;1.88;;;1.23;;
44810;SDS011;30526;52.184;4.476;2022-07-30T06:44:07;2.65;;;1.15;;
44810;SDS011;30526;52.184;4.476;2022-07-30T06:46:33;4.35;;;1.20;;
44810;SDS011;30526;52.184;4.476;2022-07-30T06:49:00;2.13;;;1.13;;
44810;SDS011;30526;52.184;4.476;2022-07-30T06:51:26;2.28;;;1.08;;
44810;SDS011;30526;52.184;4.476;2022-07-30T06:53:52;3.90;;;1.38;;
44810;SDS011;30526;52.184;4.476;2022-07-30T06:56:18;4.80;;;1.05;;
44810;SDS011;30526;52.184;4.476;2022-07-30T06:58:44;1.90;;;1.20;;
44810;SDS011;30526;52.184;4.476;2022-07-30T07:01:10;2.08;;;1.20;;
44810;SDS011;30526;52.184;4.476;2022-07-30T07:03:36;2.60;;;1.17;;
44810;SDS011;30526;52.184;4.476;2022-07-30T07:06:02;4.82;;;1.30;;
44810;SDS011;30526;52.184;4.476;2022-07-30T07:08:29;3.15;;;1.00;;
44810;SDS011;30526;52.184;4.476;2022-07-30T07:10:56;3.57;;;1.20;;
44810;SDS011;30526;52.184;4.476;2022-07-30T07:13:22;3.30;;;1.60;;
44810;SDS011;30526;52.184;4.476;2022-07-30T07:15:48;3.65;;;1.20;;
44810;SDS011;30526;52.184;4.476;2022-07-30T07:18:14;2.85;;;1.10;;
44810;SDS011;30526;52.184;4.476;2022-07-30T07:20:40;3.30;;;1.30;;
44810;SDS011;30526;52.184;4.476;2022-07-30T07:23:07;3.63;;;1.40;;
44810;SDS011;30526;52.184;4.476;2022-07-30T07:25:33;3.42;;;1.10;;
44810;SDS011;30526;52.184;4.476;2022-07-30T07:27:59;3.05;;;1.10;;
44810;SDS011;30526;52.184;4.476;2022-07-30T07:30:25;5.20;;;1.27;;
44810;SDS011;30526;52.184;4.476;2022-07-30T07:32:51;2.92;;;1.02;;
44810;SDS011;30526;52.184;4.476;2022-07-30T07:35:17;2.72;;;1.30;;
44810;SDS011;30526;52.184;4.476;2022-07-30T07:37:43;1.90;;;1.20;;
44810;SDS011;30526;52.184;4.476;2022-07-30T07:40:09;4.35;;;1.00;;
44810;SDS011;30526;52.184;4.476;2022-07-30T07:42:35;4.40;;;1.23;;
44810;SDS011;30526;52.184;4.476;2022-07-30T07:45:01;2.40;;;0.98;;
44810;SDS011;30526;52.184;4.476;2022-07-30T07:47:27;1.02;;;0.77;;
44810;SDS011;30526;52.184;4.476;2022-07-30T07:49:53;3.03;;;0.95;;
44810;SDS011;30526;52.184;4.476;2022-07-30T07:52:20;3.90;;;1.00;;
44810;SDS011;30526;52.184;4.476;2022-07-30T07:54:46;4.85;;;0.90;;
44810;SDS011;30526;52.184;4.476;2022-07-30T07:57:12;6.13;;;1.10;;
44810;SDS011;30526;52.184;4.476;2022-07-30T07:59:38;3.38;;;1.40;;
44810;SDS011;30526;52.184;4.476;2022-07-30T08:02:04;1.25;;;0.90;;
44810;SDS011;30526;52.184;4.476;2022-07-30T08:04:30;3.33;;;1.05;;
44810;SDS011;30526;52.184;4.476;2022-07-30T08:06:55;1.77;;;0.88;;
44810;SDS011;30526;52.184;4.476;2022-07-30T08:09:21;2.17;;;1.08;;
44810;SDS011;30526;52.184;4.476;2022-07-30T08:11:47;3.33;;;1.42;;
44810;SDS011;30526;52.184;4.476;2022-07-30T08:14:13;3.13;;;1.15;;
44810;SDS011;30526;52.184;4.476;2022-07-30T08:16:40;2.83;;;1.30;;
44810;SDS011;30526;52.184;4.476;2022-07-30T08:19:06;1.57;;;1.13;;
44810;SDS011;30526;52.184;4.476;2022-07-30T08:21:32;7.10;;;1.15;;
44810;SDS011;30526;52.184;4.476;2022-07-30T08:23:58;3.13;;;1.00;;
44810;SDS011;30526;52.184;4.476;2022-07-30T08:26:24;6.47;;;0.80;;
44810;SDS011;30526;52.184;4.476;2022-07-30T08:28:50;2.78;;;0.95;;
44810;SDS011;30526;52.184;4.476;2022-07-30T08:31:16;3.72;;;1.00;;
44810;SDS011;30526;52.184;4.476;2022-07-30T08:33:42;2.03;;;0.90;;
44810;SDS011;30526;52.184;4.476;2022-07-30T08:36:08;1.92;;;1.10;;
44810;SDS011;30526;52.184;4.476;2022-07-30T08:38:34;2.55;;;0.85;;
44810;SDS011;30526;52.184;4.476;2022-07-30T08:41:00;2.88;;;1.20;;
44810;SDS011;30526;52.184;4.476;2022-07-30T08:43:25;2.72;;;1.42;;
44810;SDS011;30526;52.184;4.476;2022-07-30T08:45:52;1.93;;;0.97;;
44810;SDS011;30526;52.184;4.476;2022-07-30T08:48:19;2.80;;;0.82;;
44810;SDS011;30526;52.184;4.476;2022-07-30T08:50:46;1.60;;;0.98;;
44810;SDS011;30526;52.184;4.476;2022-07-30T08:53:13;1.67;;;1.13;;
44810;SDS011;30526;52.184;4.476;2022-07-30T08:55:39;3.40;;;1.02;;
44810;SDS011;30526;52.184;4.476;2022-07-30T08:58:09;2.40;;;1.10;;
44810;SDS011;30526;52.184;4.476;2022-07-30T09:00:39;2.55;;;1.00;;
44810;SDS011;30526;52.184;4.476;2022-07-30T09:03:05;3.42;;;1.05;;
44810;SDS011;30526;52.184;4.476;2022-07-30T09:05:31;1.00;;;0.90;;
44810;SDS011;30526;52.184;4.476;2022-07-30T09:07:57;1.50;;;1.10;;
44810;SDS011;30526;52.184;4.476;2022-07-30T09:10:23;3.08;;;1.00;;
44810;SDS011;30526;52.184;4.476;2022-07-30T09:12:49;1.67;;;0.85;;
44810;SDS011;30526;52.184;4.476;2022-07-30T09:15:17;2.70;;;1.17;;
44810;SDS011;30526;52.184;4.476;2022-07-30T09:18:02;1.52;;;1.00;;
44810;SDS011;30526;52.184;4.476;2022-07-30T09:20:30;1.02;;;0.90;;
44810;SDS011;30526;52.184;4.476;2022-07-30T09:22:58;2.13;;;1.10;;
44810;SDS011;30526;52.184;4.476;2022-07-30T09:25:39;2.40;;;0.95;;
44810;SDS011;30526;52.184;4.476;2022-07-30T09:28:05;3.80;;;1.38;;
44810;SDS011;30526;52.184;4.476;2022-07-30T09:30:43;3.05;;;1.13;;
44810;SDS011;30526;52.184;4.476;2022-07-30T09:33:09;1.97;;;0.90;;
44810;SDS011;30526;52.184;4.476;2022-07-30T09:35:35;3.55;;;1.10;;
44810;SDS011;30526;52.184;4.476;2022-07-30T09:38:02;3.85;;;0.95;;
44810;SDS011;30526;52.184;4.476;2022-07-30T09:40:29;2.92;;;1.15;;
44810;SDS011;30526;52.184;4.476;2022-07-30T09:43:05;4.70;;;1.10;;
44810;SDS011;30526;52.184;4.476;2022-07-30T09:45:32;3.10;;;1.20;;
44810;SDS011;30526;52.184;4.476;2022-07-30T09:47:58;3.63;;;1.30;;
44810;SDS011;30526;52.184;4.476;2022-07-30T09:50:24;3.10;;;0.90;;
44810;SDS011;30526;52.184;4.476;2022-07-30T09:52:51;2.05;;;1.10;;
44810;SDS011;30526;52.184;4.476;2022-07-30T09:55:31;3.67;;;1.03;;
44810;SDS011;30526;52.184;4.476;2022-07-30T09:57:58;4.40;;;1.15;;
44810;SDS011;30526;52.184;4.476;2022-07-30T10:02:50;3.45;;;0.98;;
44810;SDS011;30526;52.184;4.476;2022-07-30T10:05:17;4.78;;;1.23;;
44810;SDS011;30526;52.184;4.476;2022-07-30T10:07:47;1.80;;;1.00;;
44810;SDS011;30526;52.184;4.476;2022-07-30T10:10:15;3.22;;;1.27;;
44810;SDS011;30526;52.184;4.476;2022-07-30T10:12:41;4.47;;;0.98;;
44810;SDS011;30526;52.184;4.476;2022-07-30T10:15:07;2.20;;;1.02;;
44810;SDS011;30526;52.184;4.476;2022-07-30T10:17:34;4.72;;;1.20;;
44810;SDS011;30526;52.184;4.476;2022-07-30T10:20:03;4.75;;;1.13;;
44810;SDS011;30526;52.184;4.476;2022-07-30T10:22:29;3.63;;;1.10;;
44810;SDS011;30526;52.184;4.476;2022-07-30T10:24:55;2.20;;;0.98;;
44810;SDS011;30526;52.184;4.476;2022-07-30T10:27:21;2.75;;;0.80;;
44810;SDS011;30526;52.184;4.476;2022-07-30T10:29:50;1.50;;;0.82;;
44810;SDS011;30526;52.184;4.476;2022-07-30T10:32:16;2.30;;;0.90;;
44810;SDS011;30526;52.184;4.476;2022-07-30T10:34:42;3.75;;;1.20;;
44810;SDS011;30526;52.184;4.476;2022-07-30T10:37:08;1.70;;;0.83;;
44810;SDS011;30526;52.184;4.476;2022-07-30T10:39:36;3.15;;;1.05;;
44810;SDS011;30526;52.184;4.476;2022-07-30T10:44:36;3.30;;;0.90;;
44810;SDS011;30526;52.184;4.476;2022-07-30T10:47:07;2.45;;;0.98;;
44810;SDS011;30526;52.184;4.476;2022-07-30T10:49:34;3.75;;;1.02;;
44810;SDS011;30526;52.184;4.476;2022-07-30T10:52:00;2.78;;;0.88;;
44810;SDS011;30526;52.184;4.476;2022-07-30T10:57:02;3.20;;;1.10;;
44810;SDS011;30526;52.184;4.476;2022-07-30T10:59:29;3.28;;;0.88;;
44810;SDS011;30526;52.184;4.476;2022-07-30T11:04:25;2.45;;;0.85;;
44810;SDS011;30526;52.184;4.476;2022-07-30T11:06:51;4.25;;;1.15;;
44810;SDS011;30526;52.184;4.476;2022-07-30T11:09:36;4.67;;;1.07;;
44810;SDS011;30526;52.184;4.476;2022-07-30T11:12:03;1.30;;;0.73;;
44810;SDS011;30526;52.184;4.476;2022-07-30T11:17:11;3.90;;;1.10;;
44810;SDS011;30526;52.184;4.476;2022-07-30T11:20:11;2.58;;;0.93;;
44810;SDS011;30526;52.184;4.476;2022-07-30T11:22:34;1.92;;;1.10;;
44810;SDS011;30526;52.184;4.476;2022-07-30T11:25:03;2.08;;;1.00;;
44810;SDS011;30526;52.184;4.476;2022-07-30T11:27:33;2.05;;;0.77;;
44810;SDS011;30526;52.184;4.476;2022-07-30T11:29:59;4.05;;;1.10;;
44810;SDS011;30526;52.184;4.476;2022-07-30T11:32:28;2.17;;;0.95;;
44810;SDS011;30526;52.184;4.476;2022-07-30T11:35:13;2.17;;;0.80;;
44810;SDS011;30526;52.184;4.476;2022-07-30T11:40:25;4.03;;;1.17;;
44810;SDS011;30526;52.184;4.476;2022-07-30T11:42:51;1.92;;;1.02;;
44810;SDS011;30526;52.184;4.476;2022-07-30T11:45:37;1.53;;;1.00;;
44810;SDS011;30526;52.184;4.476;2022-07-30T11:48:08;2.17;;;1.10;;
44810;SDS011;30526;52.184;4.476;2022-07-30T11:50:34;4.43;;;1.10;;
44810;SDS011;30526;52.184;4.476;2022-07-30T11:53:21;5.22;;;1.20;;
44810;SDS011;30526;52.184;4.476;2022-07-30T11:55:50;2.30;;;1.17;;
44810;SDS011;30526;52.184;4.476;2022-07-30T12:00:48;4.05;;;0.98;;
44810;SDS011;30526;52.184;4.476;2022-07-30T12:03:16;2.47;;;1.15;;
44810;SDS011;30526;52.184;4.476;2022-07-30T12:05:42;1.67;;;1.08;;
44810;SDS011;30526;52.184;4.476;2022-07-30T12:08:09;3.35;;;1.90;;
44810;SDS011;30526;52.184;4.476;2022-07-30T12:15:36;3.45;;;1.15;;
44810;SDS011;30526;52.184;4.476;2022-07-30T12:20:28;2.27;;;1.20;;
44810;SDS011;30526;52.184;4.476;2022-07-30T12:22:55;5.75;;;1.35;;
44810;SDS011;30526;52.184;4.476;2022-07-30T12:25:22;3.08;;;1.10;;
44810;SDS011;30526;52.184;4.476;2022-07-30T12:27:49;1.60;;;0.93;;
44810;SDS011;30526;52.184;4.476;2022-07-30T12:30:15;4.22;;;1.33;;
44810;SDS011;30526;52.184;4.476;2022-07-30T12:32:42;3.08;;;1.08;;
44810;SDS011;30526;52.184;4.476;2022-07-30T12:35:08;2.58;;;1.20;;
44810;SDS011;30526;52.184;4.476;2022-07-30T12:37:34;3.65;;;1.33;;
44810;SDS011;30526;52.184;4.476;2022-07-30T12:40:07;1.13;;;0.80;;
44810;SDS011;30526;52.184;4.476;2022-07-30T12:42:33;4.10;;;1.20;;
44810;SDS011;30526;52.184;4.476;2022-07-30T12:45:00;2.40;;;1.08;;
44810;SDS011;30526;52.184;4.476;2022-07-30T12:47:27;2.70;;;1.17;;
44810;SDS011;30526;52.184;4.476;2022-07-30T12:49:54;5.63;;;1.30;;
44810;SDS011;30526;52.184;4.476;2022-07-30T12:52:24;2.17;;;1.05;;
44810;SDS011;30526;52.184;4.476;2022-07-30T12:57:22;2.17;;;1.02;;
44810;SDS011;30526;52.184;4.476;2022-07-30T12:59:59;3.47;;;1.20;;
44810;SDS011;30526;52.184;4.476;2022-07-30T13:02:34;4.68;;;1.10;;
44810;SDS011;30526;52.184;4.476;2022-07-30T13:05:01;4.45;;;1.40;;
44810;SDS011;30526;52.184;4.476;2022-07-30T13:07:27;2.65;;;1.20;;
44810;SDS011;30526;52.184;4.476;2022-07-30T13:10:09;3.42;;;1.10;;
44810;SDS011;30526;52.184;4.476;2022-07-30T13:12:35;3.17;;;1.10;;
44810;SDS011;30526;52.184;4.476;2022-07-30T13:15:02;5.57;;;1.20;;
44810;SDS011;30526;52.184;4.476;2022-07-30T13:19:54;3.17;;;1.17;;
44810;SDS011;30526;52.184;4.476;2022-07-30T13:22:20;4.53;;;1.35;;
44810;SDS011;30526;52.184;4.476;2022-07-30T13:24:46;3.03;;;1.30;;
44810;SDS011;30526;52.184;4.476;2022-07-30T13:27:12;2.53;;;1.20;;
44810;SDS011;30526;52.184;4.476;2022-07-30T13:29:40;2.30;;;1.10;;
44810;SDS011;30526;52.184;4.476;2022-07-30T13:32:06;4.30;;;1.77;;
44810;SDS011;30526;52.184;4.476;2022-07-30T13:34:32;1.58;;;1.20;;
44810;SDS011;30526;52.184;4.476;2022-07-30T13:36:58;3.30;;;1.23;;
44810;SDS011;30526;52.184;4.476;2022-07-30T13:39:24;2.78;;;1.20;;
44810;SDS011;30526;52.184;4.476;2022-07-30T13:41:50;3.45;;;1.17;;
44810;SDS011;30526;52.184;4.476;2022-07-30T13:44:16;3.47;;;1.23;;
44810;SDS011;30526;52.184;4.476;2022-07-30T13:46:42;5.13;;;1.20;;
44810;SDS011;30526;52.184;4.476;2022-07-30T13:49:08;4.63;;;1.50;;
44810;SDS011;30526;52.184;4.476;2022-07-30T13:51:34;6.68;;;1.65;;
44810;SDS011;30526;52.184;4.476;2022-07-30T13:54:00;2.35;;;1.00;;
44810;SDS011;30526;52.184;4.476;2022-07-30T13:56:26;4.63;;;1.00;;
44810;SDS011;30526;52.184;4.476;2022-07-30T13:58:52;3.67;;;1.35;;
44810;SDS011;30526;52.184;4.476;2022-07-30T14:01:18;5.65;;;1.55;;
44810;SDS011;30526;52.184;4.476;2022-07-30T14:03:45;3.30;;;1.15;;
44810;SDS011;30526;52.184;4.476;2022-07-30T14:06:12;8.05;;;1.40;;
44810;SDS011;30526;52.184;4.476;2022-07-30T14:08:38;3.05;;;1.38;;
44810;SDS011;30526;52.184;4.476;2022-07-30T14:11:04;2.22;;;1.02;;
44810;SDS011;30526;52.184;4.476;2022-07-30T14:13:30;5.15;;;1.50;;
44810;SDS011;30526;52.184;4.476;2022-07-30T14:15:56;2.53;;;1.07;;
44810;SDS011;30526;52.184;4.476;2022-07-30T14:18:25;3.55;;;1.20;;
44810;SDS011;30526;52.184;4.476;2022-07-30T14:20:51;3.25;;;1.17;;
44810;SDS011;30526;52.184;4.476;2022-07-30T14:23:17;3.80;;;1.38;;
44810;SDS011;30526;52.184;4.476;2022-07-30T14:25:44;3.17;;;1.13;;
44810;SDS011;30526;52.184;4.476;2022-07-30T14:28:10;2.83;;;1.10;;
44810;SDS011;30526;52.184;4.476;2022-07-30T14:30:36;1.77;;;1.03;;
44810;SDS011;30526;52.184;4.476;2022-07-30T14:33:02;4.30;;;1.20;;
44810;SDS011;30526;52.184;4.476;2022-07-30T14:35:28;4.40;;;1.30;;
44810;SDS011;30526;52.184;4.476;2022-07-30T14:37:54;2.33;;;1.30;;
44810;SDS011;30526;52.184;4.476;2022-07-30T14:40:20;2.37;;;1.23;;
44810;SDS011;30526;52.184;4.476;2022-07-30T14:42:46;1.95;;;1.02;;
44810;SDS011;30526;52.184;4.476;2022-07-30T14:45:12;1.75;;;1.25;;
44810;SDS011;30526;52.184;4.476;2022-07-30T14:47:38;3.97;;;1.73;;
44810;SDS011;30526;52.184;4.476;2022-07-30T14:50:07;2.03;;;1.20;;
44810;SDS011;30526;52.184;4.476;2022-07-30T14:52:36;4.75;;;1.23;;
44810;SDS011;30526;52.184;4.476;2022-07-30T14:55:03;6.28;;;1.65;;
44810;SDS011;30526;52.184;4.476;2022-07-30T14:59:55;3.60;;;1.70;;
44810;SDS011;30526;52.184;4.476;2022-07-30T15:02:21;4.63;;;1.40;;
44810;SDS011;30526;52.184;4.476;2022-07-30T15:04:47;2.38;;;1.20;;
44810;SDS011;30526;52.184;4.476;2022-07-30T15:07:13;2.78;;;1.25;;
44810;SDS011;30526;52.184;4.476;2022-07-30T15:09:39;7.35;;;1.90;;
44810;SDS011;30526;52.184;4.476;2022-07-30T15:12:05;2.55;;;1.75;;
44810;SDS011;30526;52.184;4.476;2022-07-30T15:14:33;3.42;;;1.35;;
44810;SDS011;30526;52.184;4.476;2022-07-30T15:17:00;5.57;;;1.63;;
44810;SDS011;30526;52.184;4.476;2022-07-30T15:19:26;6.32;;;2.35;;
44810;SDS011;30526;52.184;4.476;2022-07-30T15:21:52;5.40;;;1.63;;
44810;SDS011;30526;52.184;4.476;2022-07-30T15:24:18;5.18;;;1.73;;
44810;SDS011;30526;52.184;4.476;2022-07-30T15:26:44;8.02;;;1.52;;
44810;SDS011;30526;52.184;4.476;2022-07-30T15:29:11;6.50;;;1.90;;
44810;SDS011;30526;52.184;4.476;2022-07-30T15:31:37;3.53;;;1.50;;
44810;SDS011;30526;52.184;4.476;2022-07-30T15:34:03;3.15;;;1.65;;
44810;SDS011;30526;52.184;4.476;2022-07-30T15:36:29;4.05;;;1.90;;
44810;SDS011;30526;52.184;4.476;2022-07-30T15:38:55;4.93;;;1.80;;
44810;SDS011;30526;52.184;4.476;2022-07-30T15:41:21;7.75;;;1.80;;